Relevés horaires Chievres (Belgique)


Relevés horaires à Chievres - Vendredi 04 Sept. 2026
Heure UTC1 Température [°C] Vent [km/h] Hum. [%] Pres.4 [hPa] Visi. [Km] Nébu. [octa] Préc.5 [mm] Cond.
2m. Res. Ros. Dir.2 Vit. Moy. Raf.3
23:00 16.5 16.5 14.8 OSO 3.7 -- 9.3 90 1018.5(1.3/3h) >70 -- -- --
22:00 17.8 17.8 15.6 OSO 7.4 -- 11.1 87 1018(1.6/3h) >70 -- -- --
21:00 18.2 18.2 16.0 O 5.6 7.4 11.1 87 1017.7(2.0/3h) >70 -- -- Ciel clair
20:00 17.8 17.8 16.6 SO 5.6 -- 9.3 93 1017.1(1.7/3h) 70 -- -- Ciel clair
19:00 18.2 18.2 16.6 SO 5.6 -- 11.1 90 1016.3(1.0/3h) >70 -- -- --
18:00 18.7 18.7 17.4 SO 5.6 -- 25.9 92 1015.7(0.8/3h) >70 -- 0.5/12h
NA
17:00 19.0 19.0 17.5 OSO 9.3 -- 18.5 91 1015.3(1.2/3h) 70 -- -- Ciel clair
16:00 19.2 19.2 17.2 O 13.0 -- 20.4 88 1015.3(1.0/3h) 7 -- -- Il y a de la bruine et pluie mêlées d'intensité faible à la station au moment de l'observation
15:00 19.8 19.8 18.2 O 16.7 -- 25.9 91 1014.8(0.6/3h) >70 -- -- NA
14:00 22.7 22.7 17.9 OSO 13.0 -- 24.1 74 1014.1(0.0/3h) >70 -- -- NA
13:00 22.8 22.8 17.1 OSO 13.0 -- 24.1 70 1014.2(0.1/3h) 70 -- -- --
12:00 22.2 22.2 17.2 OSO 13.0 -- 27.8 73 1014.1(-0.2/3h) 70 -- 0/6h
Ciel clair
11:00 22.3 22.3 17.4 OSO 14.8 -- 25.9 74 1014.2(0.0/3h) >70 -- -- NA
10:00 22.9 22.9 17.8 OSO 14.8 -- 22.2 73 1014.1(-0.1/3h) >70 -- -- NA
09:00 22.1 22.1 17.6 SO 13.0 -- 20.4 76 1014.3(-0.4/3h) 70 -- -- Ciel clair
08:00 21.7 21.7 17.7 SO 13.0 -- 18.5 78 1014.2(-1.2/3h) 70 -- -- --
07:00 21.1 21.1 18.2 SO 11.1 -- 18.5 84 1014.2(-1.5/3h) >70 -- -- --
06:00 20.3 20.3 18.2 SSO 9.3 -- 16.7 88 1014.7(-1.3/3h) >70 -- -- --
05:00 20.2 20.2 18.1 SO 9.3 -- 13.0 88 1015.5(-1.4/3h) >70 -- -- --
04:00 20.2 20.2 18.3 SO 9.3 -- 14.8 89 1015.7(-1.6/3h) >70 -- -- --
03:00 19.8 19.8 18.0 SO 9.3 -- 16.7 89 1016.2(-1.5/3h) 70 -- -- --
02:00 20.5 20.5 18.2 SO 7.4 -- 16.7 87 1016.8(-1.4/3h) >70 -- -- --
01:00 20.7 20.7 18.3 SO 9.3 -- 16.7 86 1017.5(-0.9/3h) >70 -- -- --
00:00 20.7 20.7 18.3 SO 11.1 -- 18.5 86 1017.7(-1.2/3h) >70 -- -- NA

1 Coordinated Universal Time. Actuellement il est 06:00 locale et 04:00 UTC.

2 Le vent souffle depuis la direction indiquée vers la direction oposée.

3 Les rafales max. sont disponible 40 min après l'heure du relevé.

4 Pour les stations d'altitude (plus de 600m) le géopotentiel du niveau le plus proche de la pression obligatoire est indiqué.

5 Les stations disposant d'un diffuseur peuvent indiquer "trace". Cela signifie que des précipitations ont touchés le sol mais que la quantité est inférieure à 0.1 mm.

Récapitulatif de la journée
Température [°C] Vent [km/h] Ensoleillement4 [h] Precipitations totale5 [mm] Pression [Hpa]
Min1 Max.2 Moy.3 Max. Min Max.
19.8 23.2 7.4 27.8 0 h 0 min 0 1014.1 1018.5

1 Température minimale relevée entre 18:00 UTC la veille et 18:00 UTC le jour donné.

2 Température maximale relevée entre 06:00 UTC le jour donné et 06:00 UTC le lendemain.

3 Vent moyen de la journée basé sur les relevés horaires.

4 Ensoleillement en heures relevé entre 06:00 UTC la veille et 06:00 UTC le jour donné.

5 Précipitations totales tombées entre 06:00 UTC la jour donné et 06:00 UTC le lendemain.

Graphiques horaires